Flight Track Log - Related Links

Times and Time Zones

All times are in EDT time to prevent confusion due to time zone crossing. See the CSN312 flight status page for this flight to view local times or setup timezone preferences in your user account.

Time Position Orientation Groundspeed Altitude Reporting Facility
EDT Latitude Longitude Course Direction KTS MPH feet Rate Location/Type
Sun 11:29:17 PM 22.3040 113.9230 75° East 151 174 700  Level FlightAware ADS-B
Sun 11:29:47 PM 22.3110 113.9460 72° East 182 209 1,700 2,182 Climbing FlightAware ADS-B
Sun 11:30:12 PM 22.3190 113.9700 70° East 217 250 2,700 3,055 Climbing FlightAware ADS-B
Sun 11:30:42 PM 22.3290 114.0020 71° East 235 270 4,500 3,700 Climbing FlightAware ADS-B
Sun 11:31:12 PM 22.3380 114.0370 74° East 249 287 6,400 3,055 Climbing FlightAware ADS-B
Sun 11:31:37 PM 22.3290 114.0660 109° East 280 322 7,300 2,618 Climbing FlightAware ADS-B
Sun 11:32:07 PM 22.3130 114.1100 111° Southeast 305 351 8,800 2,267 Climbing FlightAware ADS-B
Sun 11:32:22 PM 22.3080 114.1250 110° East 326 375 9,000 400 Climbing FlightAware ADS-B
Sun 11:32:37 PM 22.2980 114.1530 111° Southeast 345 397 9,000  Level FlightAware ADS-B
Sun 11:33:07 PM 22.2800 114.2030 111° Southeast 355 409 9,000  Level FlightAware ADS-B
Sun 11:33:42 PM 22.2580 114.2650 111° Southeast 353 406 9,000  Level FlightAware ADS-B
Sun 11:34:12 PM 22.2430 114.3060 112° Southeast 353 406 9,000  Level FlightAware ADS-B
Sun 11:34:42 PM 22.2280 114.3480 111° Southeast 353 406 9,000  Level FlightAware ADS-B
Sun 11:35:02 PM 22.2180 114.3760 111° Southeast 353 406 9,000  Level FlightAware ADS-B
Sun 11:35:22 PM 22.2080 114.4040 111° Southeast 353 406 9,000  Level FlightAware ADS-B
Sun 11:35:42 PM 22.1980 114.4320 111° Southeast 353 406 9,000  Level FlightAware ADS-B
Sun 11:38:00 PM 22.2804 114.5849 60° Northeast  Level Estimated
Sun 11:39:00 PM 22.3161 114.6515 60° Northeast  Level Estimated
Sun 11:40:00 PM 22.3519 114.7180 60° Northeast  Level Estimated
Sun 11:41:00 PM 22.3876 114.7847 60° Northeast  Level Estimated
Sun 11:42:00 PM 22.4233 114.8513 60° Northeast  Level Estimated
Sun 11:43:00 PM 22.4590 114.9180 60° Northeast  Level Estimated
Sun 11:44:00 PM 22.4946 114.9847 60° Northeast  Level Estimated
Sun 11:45:00 PM 22.5302 115.0514 60° Northeast  Level Estimated
Sun 11:46:00 PM 22.5658 115.1182 60° Northeast  Level Estimated
Sun 11:47:00 PM 22.6013 115.1850 60° Northeast  Level Estimated
Sun 11:48:00 PM 22.6368 115.2519 60° Northeast  Level Estimated
Sun 11:49:00 PM 22.6723 115.3188 60° Northeast  Level Estimated
Sun 11:50:00 PM 22.7078 115.3857 60° Northeast  Level Estimated
Sun 11:51:00 PM 22.7432 115.4527 60° Northeast  Level Estimated
Sun 11:52:00 PM 22.7921 115.5451 60° Northeast  Level Estimated
Sun 11:53:00 PM 22.8409 115.6376 60° Northeast  Level Estimated
Sun 11:54:00 PM 22.8896 115.7301 60° Northeast  Level Estimated
Sun 11:55:00 PM 22.9383 115.8227 60° Northeast  Level Estimated
Sun 11:56:00 PM 22.9869 115.9154 60° Northeast  Level Estimated
Sun 11:57:00 PM 23.0355 116.0081 60° Northeast  Level Estimated
Sun 11:58:00 PM 23.0840 116.1009 60° Northeast  Level Estimated
Sun 11:59:00 PM 23.1325 116.1938 60° Northeast  Level Estimated
Mon 12:00:00 AM 23.1809 116.2868 60° Northeast  Level Estimated
Mon 12:01:00 AM 23.2292 116.3798 60° Northeast  Level Estimated
Mon 12:02:00 AM 23.2775 116.4728 61° Northeast  Level Estimated
Mon 12:03:00 AM 23.3258 116.5660 61° Northeast  Level Estimated
Mon 12:04:00 AM 23.3739 116.6592 61° Northeast  Level Estimated
Mon 12:05:00 AM 23.4221 116.7525 61° Northeast  Level Estimated
Mon 12:06:00 AM 23.4269 116.7619 61° Northeast  Level Estimated
Mon 12:07:00 AM 23.4269 116.7619 43° Northeast  Level Estimated
Mon 12:08:00 AM 23.4269 116.7619 43° Northeast  Level Estimated
Mon 12:09:00 AM 23.4269 116.7619 43° Northeast  Level Estimated
Mon 12:10:00 AM 23.4269 116.7619 43° Northeast  Level Estimated
Mon 12:11:00 AM 23.4269 116.7619 43° Northeast  Level Estimated
Mon 12:12:00 AM 23.4269 116.7619 43° Northeast  Level Estimated
Mon 12:13:00 AM 23.4269 116.7619 43° Northeast  Level Estimated

Login

Don't have an account? Register now (free) for customized features, flight alerts, and more!